Terminal Aerodrome Forecast
Issued by NWS Northern Indiana

Home | Current Version | Previous Version | Text Only | Print | Product List | Glossary Off
Versions: 1 2 3 4 5 6 7 8 9 10 11 12 13 14 15 16 17 18 19

000
FTUS43 KIWX 271120
TAFFWA
TAF
KFWA 271120Z 2712/2812 11006KT P6SM FEW050 BKN150
     FM271700 16008KT P6SM VCTS SCT040CB BKN100
     FM272200 18006KT P6SM BKN100
     FM280700 VRB03KT 3SM BR BKN150=

USA.gov is the U.S. government's official web portal to all federal, state and local government web resources and services.